createdAt,value
2018-07-17T00:00:49.876Z,98349.45
2018-07-17T00:03:20.352Z,98356.06
2018-07-17T00:05:51.521Z,98339.52
2018-07-17T00:08:22.102Z,98325.30
2018-07-17T00:10:52.781Z,98308.42
2018-07-17T00:13:23.375Z,98291.91
2018-07-17T00:15:53.926Z,98300.19
2018-07-17T00:18:24.365Z,98313.59
2018-07-17T00:20:55.023Z,98310.63
2018-07-17T00:23:25.987Z,98308.66
2018-07-17T00:25:57.081Z,98317.73
2018-07-17T00:28:27.503Z,98313.62
2018-07-17T00:30:58.011Z,98299.91
2018-07-17T00:33:28.630Z,98312.79
2018-07-17T00:35:59.141Z,98314.80
2018-07-17T00:38:29.684Z,98304.88
2018-07-17T00:41:00.345Z,98300.09
2018-07-17T00:43:31.378Z,98292.34
2018-07-17T00:46:02.516Z,98293.18
2018-07-17T00:48:33.186Z,98287.91
2018-07-17T00:51:03.737Z,98294.52
2018-07-17T00:53:34.234Z,98289.72
2018-07-17T00:56:04.870Z,98290.55
2018-07-17T00:58:35.225Z,98295.67
2018-07-17T01:01:04.809Z,98289.53
2018-07-17T01:03:40.580Z,98262.59
2018-07-17T01:06:16.409Z,98254.34
2018-07-17T01:08:51.902Z,98245.73
2018-07-17T01:11:27.597Z,98244.11
2018-07-17T01:14:04.205Z,98238.47
2018-07-17T01:16:34.749Z,98232.20
2018-07-17T01:19:05.475Z,98241.45
2018-07-17T01:21:36.174Z,98241.63
2018-07-17T01:24:06.920Z,98244.58
2018-07-17T01:26:37.444Z,98233.54
2018-07-17T01:29:08.683Z,98225.25
2018-07-17T01:31:39.734Z,98211.38
2018-07-17T01:34:10.303Z,98212.02
2018-07-17T01:36:40.750Z,98204.39
2018-07-17T01:39:11.493Z,98194.81
2018-07-17T01:41:42.091Z,98183.89
2018-07-17T01:44:15.876Z,98184.23
2018-07-17T01:46:48.146Z,98191.53
2018-07-17T01:49:19.633Z,98192.69
2018-07-17T01:51:50.088Z,98192.85
2018-07-17T01:54:20.452Z,98194.47
2018-07-17T01:56:50.528Z,98198.42
2018-07-17T01:59:21.070Z,98193.11
2018-07-17T02:01:51.062Z,98182.22
2018-07-17T02:04:21.674Z,98179.91
2018-07-17T02:06:53.000Z,98177.91
2018-07-17T02:09:23.782Z,98173.14
2018-07-17T02:11:53.865Z,98176.61
2018-07-17T02:14:24.362Z,98178.98
2018-07-17T02:16:54.931Z,98186.28
2018-07-17T02:19:25.451Z,98187.28
2018-07-17T02:21:55.898Z,98180.86
2018-07-17T02:24:26.580Z,98181.83
2018-07-17T02:26:58.006Z,98182.98
2018-07-17T02:29:28.733Z,98181.81
2018-07-17T02:31:59.313Z,98198.80
2018-07-17T02:34:29.767Z,98196.50
2018-07-17T02:37:00.340Z,98189.70
2018-07-17T02:39:30.826Z,98185.55
2018-07-17T02:42:01.364Z,98173.00
2018-07-17T02:44:32.240Z,98175.98
2018-07-17T02:47:03.549Z,98174.68
2018-07-17T02:49:33.899Z,98181.63
2018-07-17T02:52:04.535Z,98190.89
2018-07-17T02:54:35.360Z,98193.73
2018-07-17T02:57:05.884Z,98195.20
2018-07-17T02:59:36.387Z,98207.94
2018-07-17T03:02:06.986Z,98205.78
2018-07-17T03:04:37.795Z,98211.38
2018-07-17T03:07:08.893Z,98207.77
2018-07-17T03:09:39.586Z,98202.16
2018-07-17T03:12:10.258Z,98212.73
2018-07-17T03:14:40.907Z,98219.99
2018-07-17T03:17:11.396Z,98224.27
2018-07-17T03:19:42.065Z,98220.17
2018-07-17T03:22:12.500Z,98222.16
2018-07-17T03:24:43.957Z,98227.75
2018-07-17T03:27:14.802Z,98231.89
2018-07-17T03:29:45.438Z,98241.14
2018-07-17T03:32:15.540Z,98238.49
2018-07-17T03:34:46.092Z,98245.77
2018-07-17T03:37:16.715Z,98250.05
2018-07-17T03:39:47.362Z,98254.35
2018-07-17T03:42:17.903Z,98251.72
2018-07-17T03:44:49.161Z,98253.84
2018-07-17T03:47:20.028Z,98261.63
2018-07-17T03:49:50.585Z,98272.85
2018-07-17T03:52:21.327Z,98277.13
2018-07-17T03:54:51.973Z,98278.13
2018-07-17T03:57:22.793Z,98264.27
2018-07-17T03:59:53.396Z,98272.51
2018-07-17T04:02:24.031Z,98277.30
2018-07-17T04:04:55.702Z,98278.13
2018-07-17T04:07:25.806Z,98289.02
2018-07-17T04:09:56.465Z,98294.16
2018-07-17T04:12:27.157Z,98300.59
2018-07-17T04:14:58.085Z,98295.80
2018-07-17T04:17:28.120Z,98288.88
2018-07-17T04:19:59.029Z,98291.66
2018-07-17T04:22:30.890Z,98294.66
2018-07-17T04:25:02.146Z,98290.69
2018-07-17T04:27:32.786Z,98298.44
2018-07-17T04:30:03.844Z,98299.59
2018-07-17T04:32:33.760Z,98307.34
2018-07-17T04:35:04.623Z,98298.61
2018-07-17T04:37:35.722Z,98304.21
2018-07-17T04:40:07.066Z,98302.58
2018-07-17T04:42:38.015Z,98305.70
2018-07-17T04:45:08.119Z,98316.77
2018-07-17T04:47:38.786Z,98324.06
2018-07-17T04:50:09.213Z,98306.57
2018-07-17T04:52:39.936Z,98317.31
2018-07-17T04:55:10.738Z,98317.48
2018-07-17T04:57:41.420Z,98318.79
2018-07-17T05:00:12.189Z,98313.02
2018-07-17T05:02:43.522Z,98323.09
2018-07-17T05:05:14.469Z,98322.42
2018-07-17T05:07:45.078Z,98325.71
2018-07-17T05:10:15.557Z,98317.56
2018-07-17T05:12:46.210Z,98316.36
2018-07-17T05:15:16.999Z,98319.65
2018-07-17T05:17:47.067Z,98321.63
2018-07-17T05:20:18.016Z,98317.66
2018-07-17T05:22:49.579Z,98319.81
2018-07-17T05:25:20.091Z,98317.15
2018-07-17T05:27:51.064Z,98321.38
2018-07-17T05:30:21.811Z,98319.22
2018-07-17T05:32:52.415Z,98309.07
2018-07-17T05:35:22.974Z,98317.64
2018-07-17T05:37:53.644Z,98323.57
2018-07-17T05:40:24.887Z,98317.94
2018-07-17T05:42:55.838Z,98316.73
2018-07-17T05:45:26.458Z,98317.23
2018-07-17T05:47:57.130Z,98317.36
2018-07-17T05:50:27.782Z,98314.94
2018-07-17T05:52:58.445Z,98315.53
2018-07-17T05:55:29.264Z,98309.36
2018-07-17T05:57:59.162Z,98308.39
2018-07-17T06:00:31.557Z,98313.27
2018-07-17T06:03:02.402Z,98313.12
2018-07-17T06:05:34.388Z,98324.14
2018-07-17T06:08:04.903Z,98319.23
2018-07-17T06:10:35.489Z,98322.88
2018-07-17T06:13:06.032Z,98323.07
2018-07-17T06:15:37.397Z,98325.21
2018-07-17T06:18:08.300Z,98329.25
2018-07-17T06:20:38.680Z,98331.22
2018-07-17T06:23:10.769Z,98329.80
2018-07-17T06:25:41.398Z,98333.89
2018-07-17T06:28:12.488Z,98338.72
2018-07-17T06:30:43.136Z,98336.92
2018-07-17T06:33:13.922Z,98351.31
2018-07-17T06:35:44.501Z,98347.17
2018-07-17T06:38:15.784Z,98347.27
2018-07-17T06:40:46.651Z,98342.61
2018-07-17T06:43:17.239Z,98343.28
2018-07-17T06:45:47.870Z,98347.67
2018-07-17T06:48:19.233Z,98346.91
2018-07-17T06:50:49.989Z,98353.03
2018-07-17T06:53:20.839Z,98360.16
2018-07-17T06:55:51.883Z,98360.98
2018-07-17T06:58:23.804Z,98349.77
2018-07-17T07:00:54.434Z,98359.14
2018-07-17T07:03:25.216Z,98369.44
2018-07-17T07:05:56.266Z,98369.37
2018-07-17T07:08:27.216Z,98376.29
2018-07-17T07:10:58.821Z,98369.41
2018-07-17T07:13:29.142Z,98385.41
2018-07-17T07:16:01.914Z,98388.75
2018-07-17T07:18:33.384Z,98391.61
2018-07-17T07:21:04.096Z,98387.82
2018-07-17T07:23:35.655Z,98394.39
2018-07-17T07:26:07.134Z,98387.50
2018-07-17T07:28:37.942Z,98379.02
2018-07-17T07:31:08.953Z,98383.05
2018-07-17T07:33:40.559Z,98387.91
2018-07-17T07:36:11.428Z,98390.95
2018-07-17T07:38:42.273Z,98385.36
2018-07-17T07:41:12.862Z,98391.78
2018-07-17T07:43:44.454Z,98390.97
2018-07-17T07:46:14.666Z,98388.97
2018-07-17T07:48:45.792Z,98384.19
2018-07-17T07:51:18.831Z,98391.22
2018-07-17T07:53:56.202Z,98394.48
2018-07-17T07:56:27.238Z,98389.96
2018-07-17T07:58:59.030Z,98387.81
2018-07-17T08:01:29.825Z,98392.98
2018-07-17T08:04:00.720Z,98389.46
2018-07-17T08:06:32.530Z,98392.22
2018-07-17T08:09:03.897Z,98392.20
2018-07-17T08:11:35.424Z,98386.23
2018-07-17T08:14:06.028Z,98380.27
2018-07-17T08:16:36.845Z,98387.38
2018-07-17T08:19:07.909Z,98380.45
2018-07-17T08:21:38.721Z,98378.33
2018-07-17T08:24:09.838Z,98376.95
2018-07-17T08:26:41.523Z,98379.81
2018-07-17T08:29:12.526Z,98383.38
2018-07-17T08:31:45.685Z,98385.33
2018-07-17T08:34:16.662Z,98386.02
2018-07-17T08:36:47.514Z,98378.95
2018-07-17T08:39:18.437Z,98395.42
2018-07-17T08:41:49.613Z,98394.86
2018-07-17T08:44:21.324Z,98392.27
2018-07-17T08:46:52.042Z,98394.37
2018-07-17T08:49:23.374Z,98399.28
2018-07-17T08:51:54.098Z,98405.71
2018-07-17T08:54:24.790Z,98405.56
2018-07-17T08:56:57.781Z,98401.75
2018-07-17T08:59:28.791Z,98408.96
2018-07-17T09:02:00.637Z,98406.53
2018-07-17T09:04:31.146Z,98412.08
2018-07-17T09:07:02.545Z,98410.19
2018-07-17T09:09:33.644Z,98412.74
2018-07-17T09:12:04.533Z,98408.48
2018-07-17T09:14:35.082Z,98415.79
2018-07-17T09:17:05.710Z,98416.83
2018-07-17T09:19:37.455Z,98416.97
2018-07-17T09:22:09.330Z,98422.00
2018-07-17T09:24:40.941Z,98419.23
2018-07-17T09:27:17.358Z,98417.91
2018-07-17T09:30:14.372Z,98422.09
2018-07-17T09:32:45.471Z,98417.27
2018-07-17T09:35:15.924Z,98421.07
2018-07-17T09:37:47.325Z,98419.95
2018-07-17T09:40:28.125Z,98422.75
2018-07-17T09:42:59.655Z,98424.80
2018-07-17T09:45:30.628Z,98427.70
2018-07-17T09:48:01.557Z,98431.64
2018-07-17T09:50:34.522Z,98429.89
2018-07-17T09:53:06.173Z,98437.20
2018-07-17T09:55:38.280Z,98432.47
2018-07-17T09:58:11.184Z,98436.67
2018-07-17T10:00:47.174Z,98439.10
2018-07-17T10:03:18.351Z,98438.77
2018-07-17T10:05:49.428Z,98427.50
2018-07-17T10:08:20.410Z,98419.98
2018-07-17T10:10:53.455Z,98421.89
2018-07-17T10:13:25.703Z,98421.35
2018-07-17T10:15:56.583Z,98426.05
2018-07-17T10:18:27.257Z,98425.44
2018-07-17T10:20:58.467Z,98430.36
2018-07-17T10:23:29.096Z,98439.91
2018-07-17T10:26:00.142Z,98433.36
2018-07-17T10:28:31.013Z,98436.45
2018-07-17T10:31:02.680Z,98428.56
2018-07-17T10:33:33.943Z,98432.35
2018-07-17T10:36:05.377Z,98434.12
2018-07-17T10:38:36.684Z,98440.52
2018-07-17T10:41:08.454Z,98436.73
2018-07-17T10:43:40.295Z,98442.98
2018-07-17T10:46:10.897Z,98446.22
2018-07-17T10:48:42.369Z,98438.17
2018-07-17T10:51:13.361Z,98439.16
2018-07-17T10:53:44.116Z,98439.47
2018-07-17T10:56:15.463Z,98436.00
2018-07-17T10:58:46.120Z,98434.12
2018-07-17T11:01:17.154Z,98444.38
2018-07-17T11:03:47.757Z,98442.94
2018-07-17T11:06:20.456Z,98437.31
2018-07-17T11:08:52.055Z,98447.28
2018-07-17T11:11:22.677Z,98439.81
2018-07-17T11:13:56.230Z,98435.86
2018-07-17T11:16:26.914Z,98435.16
2018-07-17T11:18:57.677Z,98430.33
2018-07-17T11:21:28.354Z,98434.48
2018-07-17T11:24:00.212Z,98425.90
2018-07-17T11:26:32.173Z,98427.91
2018-07-17T11:29:02.818Z,98422.63
2018-07-17T11:31:33.878Z,98427.88
2018-07-17T11:34:04.883Z,98418.92
2018-07-17T11:36:35.427Z,98428.28
2018-07-17T11:39:08.004Z,98432.75
2018-07-17T11:41:39.312Z,98429.59
2018-07-17T11:44:10.414Z,98426.84
2018-07-17T11:46:41.890Z,98427.30
2018-07-17T11:49:12.552Z,98434.55
2018-07-17T11:51:43.257Z,98427.03
2018-07-17T11:54:13.819Z,98431.37
2018-07-17T11:56:45.215Z,98428.59
2018-07-17T11:59:17.573Z,98425.17
2018-07-17T12:01:50.067Z,98425.80
2018-07-17T12:04:21.567Z,98430.19
2018-07-17T12:06:52.692Z,98425.77
2018-07-17T12:09:23.288Z,98422.98
2018-07-17T12:11:57.143Z,98424.87
2018-07-17T12:14:30.550Z,98426.00
2018-07-17T12:17:05.240Z,98430.04
2018-07-17T12:19:38.881Z,98428.00
2018-07-17T12:22:12.945Z,98433.98
2018-07-17T12:24:45.203Z,98431.46
2018-07-17T12:27:25.176Z,98435.38
2018-07-17T12:30:11.773Z,98436.16
2018-07-17T12:32:45.889Z,98438.31
2018-07-17T12:35:16.778Z,98435.44
2018-07-17T12:37:49.812Z,98434.80
2018-07-17T12:40:21.123Z,98439.84
2018-07-17T12:42:54.077Z,98435.27
2018-07-17T12:45:25.361Z,98438.65
2018-07-17T12:47:58.768Z,98432.73
2018-07-17T12:50:33.109Z,98430.19
2018-07-17T12:53:04.583Z,98423.05
2018-07-17T12:55:35.657Z,98428.89
2018-07-17T12:58:07.173Z,98426.79
2018-07-17T13:00:38.185Z,98425.11
2018-07-17T13:03:10.426Z,98434.72
2018-07-17T13:05:42.041Z,98433.44
2018-07-17T13:08:19.613Z,98437.98
2018-07-17T13:10:53.112Z,98432.86
2018-07-17T13:13:27.094Z,98434.05
2018-07-17T13:15:58.661Z,98438.80
2018-07-17T13:18:29.555Z,98434.52
2018-07-17T13:21:00.425Z,98431.05
2018-07-17T13:23:33.560Z,98431.55
2018-07-17T13:26:04.130Z,98433.17
2018-07-17T13:28:34.880Z,98423.63
2018-07-17T13:31:05.944Z,98428.75
2018-07-17T13:33:36.784Z,98426.71
2018-07-17T13:36:07.657Z,98421.42
2018-07-17T13:38:39.638Z,98429.80
2018-07-17T13:41:11.902Z,98432.70
2018-07-17T13:43:43.837Z,98430.23
2018-07-17T13:46:15.491Z,98433.77
2018-07-17T13:48:46.125Z,98431.14
2018-07-17T13:51:17.054Z,98425.59
2018-07-17T13:53:48.145Z,98426.48
2018-07-17T13:56:20.503Z,98424.52
2018-07-17T13:58:52.905Z,98424.67
2018-07-17T14:01:24.089Z,98426.09
2018-07-17T14:03:55.645Z,98420.05
2018-07-17T14:06:27.109Z,98425.91
2018-07-17T14:08:58.811Z,98423.16
2018-07-17T14:11:30.307Z,98427.13
2018-07-17T14:14:01.372Z,98421.16
2018-07-17T14:16:34.201Z,98414.98
2018-07-17T14:19:05.977Z,98409.91
2018-07-17T14:21:37.266Z,98415.66
2018-07-17T14:24:08.450Z,98408.33
2018-07-17T14:26:42.601Z,98405.08
2018-07-17T14:29:15.144Z,98398.66
2018-07-17T14:31:48.624Z,98404.39
2018-07-17T14:34:19.539Z,98404.31
2018-07-17T14:36:50.722Z,98405.02
2018-07-17T14:39:24.274Z,98401.73
2018-07-17T14:41:55.323Z,98407.26
2018-07-17T14:44:26.099Z,98412.95
2018-07-17T14:47:01.870Z,98413.77
2018-07-17T14:49:38.975Z,98408.09
2018-07-17T14:52:11.032Z,98411.05
2018-07-17T14:54:43.168Z,98410.02
2018-07-17T14:57:15.400Z,98412.22
2018-07-17T14:59:50.102Z,98406.25
2018-07-17T15:02:21.469Z,98400.55
2018-07-17T15:04:52.094Z,98416.87
2018-07-17T15:07:23.185Z,98412.00
2018-07-17T15:09:54.538Z,98407.16
2018-07-17T15:12:25.453Z,98415.00
2018-07-17T15:14:56.520Z,98406.86
2018-07-17T15:17:28.546Z,98404.98
2018-07-17T15:19:59.846Z,98414.76
2018-07-17T15:22:31.771Z,98413.10
2018-07-17T15:25:02.452Z,98409.27
2018-07-17T15:27:33.227Z,98405.16
2018-07-17T15:30:04.277Z,98404.88
2018-07-17T15:32:35.619Z,98402.59
2018-07-17T15:35:07.589Z,98403.92
2018-07-17T15:37:41.031Z,98401.77
2018-07-17T15:40:12.237Z,98395.26
2018-07-17T15:42:46.591Z,98402.03
2018-07-17T15:45:19.200Z,98402.56
2018-07-17T15:47:55.175Z,98395.47
2018-07-17T15:50:26.140Z,98395.47
2018-07-17T15:52:57.071Z,98402.79
2018-07-17T15:55:27.869Z,98395.08
2018-07-17T15:57:58.479Z,98397.78
2018-07-17T16:00:29.549Z,98386.91
2018-07-17T16:03:00.373Z,98388.25
2018-07-17T16:05:30.965Z,98385.48
2018-07-17T16:08:02.873Z,98384.10
2018-07-17T16:10:34.069Z,98381.10
2018-07-17T16:13:06.241Z,98377.31
2018-07-17T16:15:37.308Z,98382.71
2018-07-17T16:18:07.638Z,98381.87
2018-07-17T16:20:38.793Z,98379.06
2018-07-17T16:23:10.811Z,98382.52
2018-07-17T16:25:44.134Z,98385.98
2018-07-17T16:28:16.116Z,98381.89
2018-07-17T16:30:46.864Z,98388.02
2018-07-17T16:33:17.538Z,98383.88
2018-07-17T16:35:48.340Z,98383.91
2018-07-17T16:38:18.968Z,98385.25
2018-07-17T16:40:51.890Z,98389.34
2018-07-17T16:43:22.780Z,98376.87
2018-07-17T16:45:53.680Z,98381.14
2018-07-17T16:48:24.500Z,98389.97
2018-07-17T16:50:56.541Z,98381.53
2018-07-17T16:53:27.983Z,98387.08
2018-07-17T16:55:58.720Z,98384.55
2018-07-17T16:58:30.436Z,98379.07
2018-07-17T17:01:02.069Z,98383.13
2018-07-17T17:03:33.089Z,98379.83
2018-07-17T17:06:04.487Z,98389.75
2018-07-17T17:08:35.343Z,98382.92
2018-07-17T17:11:06.635Z,98387.73
2018-07-17T17:13:38.023Z,98389.05
2018-07-17T17:16:10.477Z,98393.02
2018-07-17T17:18:42.212Z,98391.56
2018-07-17T17:21:12.434Z,98384.54
2018-07-17T17:23:43.566Z,98387.39
2018-07-17T17:26:16.174Z,98389.74
2018-07-17T17:28:48.505Z,98393.19
2018-07-17T17:31:21.322Z,98396.55
2018-07-17T17:33:54.719Z,98395.86
2018-07-17T17:36:28.638Z,98394.55
2018-07-17T17:39:02.966Z,98412.77
2018-07-17T17:41:34.014Z,98412.31
2018-07-17T17:44:06.945Z,98416.73
2018-07-17T17:46:47.528Z,98413.89
2018-07-17T17:49:18.626Z,98414.89
2018-07-17T17:51:52.066Z,98425.75
2018-07-17T17:54:23.490Z,98424.42
2018-07-17T17:56:55.572Z,98421.30
2018-07-17T17:59:30.386Z,98416.20
2018-07-17T18:02:05.209Z,98418.99
2018-07-17T18:04:48.710Z,98417.81
2018-07-17T18:07:29.702Z,98423.51
2018-07-17T18:10:12.149Z,98423.14
2018-07-17T18:12:44.637Z,98433.33
2018-07-17T18:15:18.571Z,98426.64
2018-07-17T18:17:51.294Z,98439.19
2018-07-17T18:20:29.334Z,98438.28
2018-07-17T18:23:01.076Z,98438.13
2018-07-17T18:25:33.885Z,98447.19
2018-07-17T18:28:09.463Z,98451.36
2018-07-17T18:30:43.877Z,98449.00
2018-07-17T18:33:15.846Z,98450.50
2018-07-17T18:35:48.307Z,98454.59
2018-07-17T18:38:20.515Z,98458.86
2018-07-17T18:40:56.587Z,98460.23
2018-07-17T18:43:29.608Z,98463.48
2018-07-17T18:46:01.501Z,98458.14
2018-07-17T18:48:35.523Z,98460.65
2018-07-17T18:51:08.101Z,98465.44
2018-07-17T18:53:41.308Z,98471.33
2018-07-17T18:56:15.310Z,98474.23
2018-07-17T18:58:47.396Z,98479.09
2018-07-17T19:01:19.398Z,98483.41
2018-07-17T19:03:51.332Z,98488.97
2018-07-17T19:06:23.639Z,98485.27
2018-07-17T19:08:55.781Z,98488.57
2018-07-17T19:11:29.344Z,98492.86
2018-07-17T19:14:01.478Z,98497.52
2018-07-17T19:16:34.053Z,98496.55
2018-07-17T19:19:07.587Z,98501.98
2018-07-17T19:21:39.833Z,98517.73
2018-07-17T19:24:15.402Z,98519.12
2018-07-17T19:26:47.562Z,98516.75
2018-07-17T19:29:19.886Z,98522.47
2018-07-17T19:31:52.234Z,98526.89
2018-07-17T19:34:24.318Z,98534.77
2018-07-17T19:36:56.980Z,98538.86
2018-07-17T19:39:30.466Z,98546.39
2018-07-17T19:42:02.583Z,98551.40
2018-07-17T19:44:35.125Z,98554.14
2018-07-17T19:47:07.197Z,98564.89
2018-07-17T19:49:39.331Z,98563.70
2018-07-17T19:52:11.837Z,98576.98
2018-07-17T19:54:45.655Z,98580.22
2018-07-17T19:57:18.057Z,98588.75
2018-07-17T19:59:51.056Z,98584.36
2018-07-17T20:02:23.554Z,98585.70
2018-07-17T20:04:55.946Z,98582.53
2018-07-17T20:07:29.457Z,98583.08
2018-07-17T20:10:03.260Z,98583.02
2018-07-17T20:12:36.141Z,98578.54
2018-07-17T20:15:08.546Z,98588.80
2018-07-17T20:17:42.238Z,98583.67
2018-07-17T20:20:16.380Z,98589.41
2018-07-17T20:22:50.628Z,98590.16
2018-07-17T20:25:22.595Z,98594.01
2018-07-17T20:27:56.576Z,98594.20
2018-07-17T20:30:29.575Z,98599.91
2018-07-17T20:33:02.517Z,98601.88
2018-07-17T20:35:35.732Z,98601.88
2018-07-17T20:38:07.893Z,98592.97
2018-07-17T20:40:39.713Z,98594.41
2018-07-17T20:43:12.715Z,98591.15
2018-07-17T20:45:49.264Z,98588.34
2018-07-17T20:48:23.901Z,98593.02
2018-07-17T20:50:58.600Z,98596.67
2018-07-17T20:53:31.671Z,98596.32
2018-07-17T20:56:04.355Z,98597.31
2018-07-17T20:58:41.679Z,98596.17
2018-07-17T21:01:16.746Z,98594.70
2018-07-17T21:03:48.069Z,98597.36
2018-07-17T21:06:19.578Z,98599.71
2018-07-17T21:08:54.319Z,98604.77
2018-07-17T21:11:26.765Z,98612.61
2018-07-17T21:13:59.851Z,98614.50
2018-07-17T21:16:31.870Z,98613.18
2018-07-17T21:19:04.679Z,98620.81
2018-07-17T21:21:38.282Z,98623.81
2018-07-17T21:24:09.977Z,98627.47
2018-07-17T21:26:41.423Z,98627.92
2018-07-17T21:29:15.970Z,98632.84
2018-07-17T21:31:47.854Z,98628.13
2018-07-17T21:34:20.383Z,98632.85
2018-07-17T21:36:52.822Z,98637.39
2018-07-17T21:39:25.404Z,98641.25
2018-07-17T21:42:00.251Z,98634.66
2018-07-17T21:44:32.244Z,98634.69
2018-07-17T21:47:06.354Z,98633.02
2018-07-17T21:49:40.295Z,98632.03
2018-07-17T21:52:13.285Z,98637.98
2018-07-17T21:54:46.963Z,98635.53
2018-07-17T21:57:20.425Z,98638.69
2018-07-17T21:59:55.056Z,98641.32
2018-07-17T22:02:28.794Z,98635.33
2018-07-17T22:05:00.755Z,98634.34
2018-07-17T22:07:32.064Z,98642.67
2018-07-17T22:10:04.721Z,98637.85
2018-07-17T22:12:36.691Z,98639.53
2018-07-17T22:15:09.985Z,98639.43
2018-07-17T22:17:41.565Z,98640.91
2018-07-17T22:20:13.934Z,98636.43
2018-07-17T22:22:51.607Z,98641.09
2018-07-17T22:25:23.617Z,98645.56
2018-07-17T22:27:56.210Z,98647.07
2018-07-17T22:30:28.670Z,98644.23
2018-07-17T22:33:02.052Z,98644.91
2018-07-17T22:35:33.482Z,98648.08
2018-07-17T22:38:06.501Z,98648.25
2018-07-17T22:40:41.400Z,98646.30
2018-07-17T22:43:14.343Z,98652.60
2018-07-17T22:45:47.709Z,98657.45
2018-07-17T22:48:20.077Z,98652.16
2018-07-17T22:50:51.753Z,98650.52
2018-07-17T22:53:24.477Z,98657.01
2018-07-17T22:56:01.146Z,98653.22
2018-07-17T22:58:35.234Z,98653.72
2018-07-17T23:01:14.713Z,98651.91
2018-07-17T23:03:50.378Z,98660.86
2018-07-17T23:06:23.299Z,98650.08
2018-07-17T23:08:58.479Z,98653.39
2018-07-17T23:11:29.808Z,98656.53
2018-07-17T23:14:03.363Z,98658.52
2018-07-17T23:16:34.815Z,98662.17
2018-07-17T23:19:09.382Z,98667.48
2018-07-17T23:21:41.262Z,98670.15
2018-07-17T23:24:12.226Z,98670.77
2018-07-17T23:26:42.880Z,98671.79
2018-07-17T23:29:14.341Z,98673.44
2018-07-17T23:31:50.241Z,98668.47
2018-07-17T23:34:23.547Z,98671.12
2018-07-17T23:36:54.956Z,98675.45
2018-07-17T23:39:26.342Z,98670.81
2018-07-17T23:41:57.015Z,98678.41
2018-07-17T23:44:29.190Z,98675.94
2018-07-17T23:47:00.218Z,98675.94
2018-07-17T23:49:38.317Z,98676.11
2018-07-17T23:52:09.539Z,98675.28
2018-07-17T23:54:40.587Z,98677.75
2018-07-17T23:57:12.008Z,98672.14
2018-07-17T23:59:43.539Z,98680.05
